Time;durP1;ratioP1;P1;durP2;ratioP2;P2;SDS_P1;SDS_P2;PMS_P1;PMS_P2;Temp;Humidity;BMP_temperature;BMP_pressure;BME280_temperature;BME280_humidity;BME280_pressure;Samples;Min_cycle;Max_cycle;Signal;HPM_P1;HPM_P2
2023/07/14 00:01:23;;;;;;;;;;;;;;;20.96;42.43;98261.84;4991103;28;19932;-64
2023/07/14 00:04:14;;;;;;;;;;;;;;;20.77;42.49;98261.94;4998380;28;19929;-67
2023/07/14 00:07:04;;;;;;;;;;;;;;;20.89;42.93;98262.53;4996787;28;20458;-66
2023/07/14 00:09:52;;;;;;;;;;;;;;;20.72;43.50;98262.22;4995459;28;19933;-59
2023/07/14 00:12:41;;;;;;;;;;;;;;;20.88;43.82;98258.19;4996907;28;20370;-61
2023/07/14 00:15:30;;;;;;;;;;;;;;;20.95;44.25;98259.47;4994190;28;19930;-62
2023/07/14 00:18:21;;;;;;;;;;;;;;;20.96;44.94;98263.81;4999288;28;19937;-63
2023/07/14 00:21:15;;;;;;;;;;;;;;;20.97;44.87;98255.16;4997232;28;19933;-61
2023/07/14 00:24:05;;;;;;;;;;;;;;;20.91;45.17;98256.63;4998643;28;19929;-69
2023/07/14 00:26:55;;;;;;;;;;;;;;;20.86;45.52;98259.72;4998197;28;20395;-61
2023/07/14 00:29:45;;;;;;;;;;;;;;;20.71;45.82;98258.69;4998015;28;20052;-65
2023/07/14 00:32:33;;;;;;;;;;;;;;;20.54;46.09;98253.66;5008337;28;21855;-63
2023/07/14 00:35:26;;;;;;;;;;;;;;;20.50;47.08;98253.59;4997878;28;19926;-61
2023/07/14 00:38:15;;;;;;;;;;;;;;;20.58;46.85;98249.00;4995281;28;19930;-64
2023/07/14 00:41:03;;;;;;;;;;;;;;;20.19;47.73;98254.63;4994551;28;19976;-70
2023/07/14 00:43:53;;;;;;;;;;;;;;;20.09;47.88;98246.94;4999165;28;19929;-62
2023/07/14 00:46:42;;;;;;;;;;;;;;;20.04;48.19;98253.56;4989365;28;19925;-60
2023/07/14 00:49:32;;;;;;;;;;;;;;;20.04;47.55;98252.75;5000212;28;19990;-60
2023/07/14 00:52:23;;;;;;;;;;;;;;;19.83;48.01;98259.47;5006238;28;19957;-63
2023/07/14 00:55:20;;;;;;;;;;;;;;;19.79;48.10;98261.34;4987715;28;20397;-61
2023/07/14 00:58:12;;;;;;;;;;;;;;;19.78;48.11;98253.44;4998435;28;20267;-59
2023/07/14 01:01:01;;;;;;;;;;;;;;;19.61;48.27;98246.41;5004032;28;19933;-62
2023/07/14 01:03:51;;;;;;;;;;;;;;;19.62;48.37;98248.00;5002714;28;19965;-61
2023/07/14 01:06:40;;;;;;;;;;;;;;;19.62;48.29;98248.00;5005763;28;19933;-65
2023/07/14 01:09:29;;;;;;;;;;;;;;;19.69;48.52;98250.09;5005933;28;20566;-61
2023/07/14 01:12:18;;;;;;;;;;;;;;;19.68;48.27;98243.78;5001104;28;19930;-64
2023/07/14 01:15:07;;;;;;;;;;;;;;;19.57;48.51;98237.25;5003869;28;19937;-71
2023/07/14 01:17:55;;;;;;;;;;;;;;;19.52;48.92;98243.84;5001988;28;20375;-62
2023/07/14 01:20:44;;;;;;;;;;;;;;;19.53;48.57;98239.13;5005270;28;19980;-60
2023/07/14 01:23:35;;;;;;;;;;;;;;;19.49;48.60;98238.25;5004591;28;19929;-59
2023/07/14 01:26:53;;;;;;;;;;;;;;;19.47;48.72;98235.84;5001636;28;19933;-61
2023/07/14 01:29:46;;;;;;;;;;;;;;;19.32;48.71;98234.75;4999987;28;20387;-60
2023/07/14 01:32:35;;;;;;;;;;;;;;;19.17;48.94;98235.59;4996013;28;19925;-61
2023/07/14 01:35:24;;;;;;;;;;;;;;;19.29;48.74;98238.25;5005472;28;19929;-61
2023/07/14 01:38:12;;;;;;;;;;;;;;;19.28;49.15;98236.66;5006371;28;19926;-61
2023/07/14 01:41:04;;;;;;;;;;;;;;;19.24;49.34;98240.47;5001030;28;19925;-71
2023/07/14 01:43:55;;;;;;;;;;;;;;;19.22;49.54;98242.78;5002234;28;19936;-63
2023/07/14 01:46:43;;;;;;;;;;;;;;;19.16;49.89;98246.97;4993639;28;20267;-62
2023/07/14 01:49:34;;;;;;;;;;;;;;;19.01;50.05;98252.16;5008015;28;20432;-62
2023/07/14 01:52:24;;;;;;;;;;;;;;;18.96;50.14;98254.38;5004783;28;19937;-62
2023/07/14 01:55:14;;;;;;;;;;;;;;;18.90;50.19;98256.63;5017594;28;19926;-64
2023/07/14 01:58:04;;;;;;;;;;;;;;;18.97;49.96;98242.25;5000695;28;19925;-69
2023/07/14 02:00:54;;;;;;;;;;;;;;;18.75;50.59;98238.16;5006083;28;19983;-63
2023/07/14 02:03:44;;;;;;;;;;;;;;;18.71;50.58;98229.84;4999865;28;19929;-61
2023/07/14 02:06:33;;;;;;;;;;;;;;;18.64;50.63;98240.63;5009543;28;20067;-61
2023/07/14 02:09:21;;;;;;;;;;;;;;;18.69;50.46;98245.91;5004755;28;19929;-64
2023/07/14 02:12:13;;;;;;;;;;;;;;;18.72;50.77;98228.69;5004388;28;19934;-66
2023/07/14 02:15:02;;;;;;;;;;;;;;;18.70;50.98;98235.72;5002257;28;19932;-62
2023/07/14 02:17:53;;;;;;;;;;;;;;;18.55;51.29;98235.34;4982064;28;19930;-64
2023/07/14 02:20:41;;;;;;;;;;;;;;;18.53;51.45;98239.56;4985913;28;19933;-64
2023/07/14 02:23:29;;;;;;;;;;;;;;;18.47;51.37;98228.03;4977875;28;20064;-60
2023/07/14 02:26:21;;;;;;;;;;;;;;;18.38;51.48;98230.19;4974674;28;19926;-60
2023/07/14 02:29:10;;;;;;;;;;;;;;;18.49;51.31;98235.97;4984625;28;20027;-60
2023/07/14 02:32:00;;;;;;;;;;;;;;;18.35;51.61;98232.84;4986818;28;20453;-63
2023/07/14 02:34:52;;;;;;;;;;;;;;;18.32;52.07;98239.84;5000778;28;19965;-63
2023/07/14 02:38:00;;;;;;;;;;;;;;;18.20;52.24;98235.22;4993412;28;19929;-60
2023/07/14 02:40:50;;;;;;;;;;;;;;;18.29;52.20;98235.06;4999043;28;20413;-62
2023/07/14 02:43:39;;;;;;;;;;;;;;;18.23;52.17;98229.03;5005859;28;19933;-64
2023/07/14 02:46:28;;;;;;;;;;;;;;;18.21;52.16;98231.31;4981403;28;19926;-64
2023/07/14 02:49:18;;;;;;;;;;;;;;;18.41;51.87;98231.44;4982592;28;19925;-60
2023/07/14 02:52:08;;;;;;;;;;;;;;;18.26;52.15;98236.56;4985241;28;19933;-63
2023/07/14 02:54:56;;;;;;;;;;;;;;;18.13;52.66;98239.75;4979028;28;19926;-61
2023/07/14 02:57:44;;;;;;;;;;;;;;;18.06;52.48;98234.88;4979796;28;20029;-62
2023/07/14 03:00:33;;;;;;;;;;;;;;;18.01;53.04;98241.41;4978396;28;19933;-61
2023/07/14 03:03:21;;;;;;;;;;;;;;;17.98;53.37;98233.88;4989688;28;19930;-67
2023/07/14 03:06:11;;;;;;;;;;;;;;;17.95;53.14;98239.25;4982689;28;20008;-60
2023/07/14 03:09:00;;;;;;;;;;;;;;;18.08;52.95;98237.25;4995782;28;19930;-64
2023/07/14 03:11:49;;;;;;;;;;;;;;;17.87;53.47;98238.28;4984588;28;19930;-64
2023/07/14 03:14:37;;;;;;;;;;;;;;;17.78;53.33;98238.44;4989401;28;19934;-61
2023/07/14 03:17:25;;;;;;;;;;;;;;;17.73;53.39;98243.38;4995104;28;20749;-61
2023/07/14 03:20:14;;;;;;;;;;;;;;;17.77;53.49;98239.59;5013058;28;19957;-65
2023/07/14 03:23:04;;;;;;;;;;;;;;;17.71;53.62;98234.66;5006042;28;19925;-61
2023/07/14 03:25:58;;;;;;;;;;;;;;;17.63;53.46;98222.69;5007693;28;19925;-62
2023/07/14 03:28:47;;;;;;;;;;;;;;;17.68;53.46;98233.41;5007856;28;19930;-62
2023/07/14 03:31:35;;;;;;;;;;;;;;;17.70;53.42;98228.38;5002487;28;19926;-60
2023/07/14 03:34:23;;;;;;;;;;;;;;;17.71;53.29;98229.97;5008226;28;19940;-63
2023/07/14 03:37:13;;;;;;;;;;;;;;;17.66;53.43;98238.47;5000552;28;20473;-69
2023/07/14 03:40:01;;;;;;;;;;;;;;;17.65;53.59;98230.56;5005922;28;19933;-63
2023/07/14 03:42:51;;;;;;;;;;;;;;;17.62;53.47;98223.81;5006619;28;20350;-64
2023/07/14 03:45:39;;;;;;;;;;;;;;;17.55;53.65;98226.38;4998013;28;20372;-63
2023/07/14 03:48:27;;;;;;;;;;;;;;;17.62;53.62;98225.75;5001638;28;19932;-62
2023/07/14 03:51:15;;;;;;;;;;;;;;;17.55;54.08;98226.38;5007446;28;19926;-60
2023/07/14 03:54:03;;;;;;;;;;;;;;;17.61;53.93;98222.22;4997851;28;20271;-64
2023/07/14 03:56:52;;;;;;;;;;;;;;;17.35;54.86;98221.84;5004030;28;19953;-66
2023/07/14 03:59:41;;;;;;;;;;;;;;;17.34;54.86;98220.25;5007312;28;20446;-65
2023/07/14 04:02:30;;;;;;;;;;;;;;;17.40;54.59;98221.63;4991527;28;20402;-61
2023/07/14 04:05:18;;;;;;;;;;;;;;;17.47;54.23;98228.13;4990490;28;19937;-65
2023/07/14 04:08:06;;;;;;;;;;;;;;;17.15;55.54;98229.09;4987140;28;20020;-63
2023/07/14 04:10:55;;;;;;;;;;;;;;;17.20;54.71;98221.44;4982102;28;19926;-60
2023/07/14 04:13:45;;;;;;;;;;;;;;;17.29;55.02;98210.31;4981857;28;19925;-66
2023/07/14 04:16:35;;;;;;;;;;;;;;;17.25;55.00;98215.69;4988159;28;19929;-63
2023/07/14 04:19:24;;;;;;;;;;;;;;;17.45;54.63;98210.38;5007569;28;20020;-62
2023/07/14 04:22:12;;;;;;;;;;;;;;;17.49;54.04;98212.09;5002922;28;20387;-64
2023/07/14 04:25:00;;;;;;;;;;;;;;;17.31;54.53;98207.22;5008906;28;19940;-61
2023/07/14 04:27:49;;;;;;;;;;;;;;;17.44;54.19;98209.59;4998406;28;19929;-62
2023/07/14 04:30:37;;;;;;;;;;;;;;;17.53;54.29;98206.69;4998954;28;19926;-65
2023/07/14 04:33:27;;;;;;;;;;;;;;;17.37;54.46;98214.88;5010725;28;19991;-65
2023/07/14 04:36:15;;;;;;;;;;;;;;;17.39;54.78;98212.59;5001131;28;19925;-62
2023/07/14 04:39:04;;;;;;;;;;;;;;;17.55;54.33;98218.13;5002570;28;19926;-72
2023/07/14 04:41:54;;;;;;;;;;;;;;;17.64;54.38;98216.03;4999742;28;19935;-65
2023/07/14 04:44:42;;;;;;;;;;;;;;;17.67;54.13;98207.06;4993128;28;20826;-67
2023/07/14 04:47:30;;;;;;;;;;;;;;;17.47;54.91;98216.31;4982019;28;20826;-62
2023/07/14 04:50:20;;;;;;;;;;;;;;;17.63;54.33;98211.69;4982446;28;19930;-66
2023/07/14 04:53:08;;;;;;;;;;;;;;;17.63;54.11;98206.19;4979045;28;19926;-60
2023/07/14 04:55:56;;;;;;;;;;;;;;;18.11;52.95;98209.88;4975902;28;19926;-64
2023/07/14 04:58:45;;;;;;;;;;;;;;;17.93;53.30;98211.34;4982760;28;20005;-64
2023/07/14 05:01:33;;;;;;;;;;;;;;;17.97;53.50;98218.53;4971064;28;19930;-62
2023/07/14 05:04:22;;;;;;;;;;;;;;;18.09;53.10;98214.09;5003431;28;19967;-62
2023/07/14 05:07:11;;;;;;;;;;;;;;;18.18;53.26;98215.53;4983712;28;19933;-62
2023/07/14 05:10:00;;;;;;;;;;;;;;;18.06;53.38;98213.69;4985271;28;19933;-60
2023/07/14 05:12:50;;;;;;;;;;;;;;;18.10;53.40;98216.50;4981762;28;20061;-62
2023/07/14 05:15:41;;;;;;;;;;;;;;;18.14;53.04;98216.59;4977605;28;19934;-63
2023/07/14 05:18:30;;;;;;;;;;;;;;;18.00;53.97;98215.09;4984742;28;19966;-60
2023/07/14 05:21:18;;;;;;;;;;;;;;;18.12;53.57;98210.66;4987581;28;19952;-66
2023/07/14 05:24:11;;;;;;;;;;;;;;;17.96;53.88;98218.88;4984248;28;19933;-64
2023/07/14 05:26:59;;;;;;;;;;;;;;;18.12;53.44;98210.66;4982540;28;20391;-62
2023/07/14 05:29:49;;;;;;;;;;;;;;;18.04;53.48;98199.47;4977928;28;19925;-65
2023/07/14 05:32:38;;;;;;;;;;;;;;;18.20;53.36;98209.69;4980252;28;20398;-63
2023/07/14 05:35:26;;;;;;;;;;;;;;;18.26;53.31;98206.31;4985530;28;19934;-63
2023/07/14 05:38:14;;;;;;;;;;;;;;;18.23;53.16;98207.03;4978606;28;20442;-63
2023/07/14 05:41:08;;;;;;;;;;;;;;;18.36;52.91;98204.97;4972587;28;20418;-66
2023/07/14 05:43:56;;;;;;;;;;;;;;;18.52;52.51;98203.00;4982335;28;19929;-66
2023/07/14 05:46:44;;;;;;;;;;;;;;;19.02;51.67;98203.41;4981203;28;19977;-62
2023/07/14 05:49:33;;;;;;;;;;;;;;;18.92;50.97;98198.47;4981020;28;20409;-61
2023/07/14 05:52:21;;;;;;;;;;;;;;;18.93;51.70;98203.59;4986444;28;20280;-64
2023/07/14 05:55:09;;;;;;;;;;;;;;;18.79;52.36;98204.06;4986643;28;20425;-61
2023/07/14 05:58:00;;;;;;;;;;;;;;;18.73;51.91;98197.25;4983623;28;20498;-61
2023/07/14 06:00:48;;;;;;;;;;;;;;;18.75;52.04;98194.13;4972900;28;19929;-69
2023/07/14 06:03:37;;;;;;;;;;;;;;;18.84;51.96;98203.78;4984795;28;20076;-62
2023/07/14 06:06:26;;;;;;;;;;;;;;;19.14;51.02;98199.72;4986819;28;20343;-63
2023/07/14 06:09:14;;;;;;;;;;;;;;;19.21;51.06;98199.88;4986469;28;20395;-63
2023/07/14 06:12:03;;;;;;;;;;;;;;;19.25;50.37;98192.50;4976235;28;20466;-63
2023/07/14 06:14:53;;;;;;;;;;;;;;;19.23;50.69;98192.88;4986938;28;19932;-62
2023/07/14 06:17:41;;;;;;;;;;;;;;;19.41;50.41;98192.44;4980322;28;19930;-62
2023/07/14 06:20:29;;;;;;;;;;;;;;;19.34;51.26;98193.88;4980189;28;19999;-61
2023/07/14 06:23:19;;;;;;;;;;;;;;;19.54;50.47;98188.34;4983363;28;19961;-62
2023/07/14 06:26:07;;;;;;;;;;;;;;;19.54;50.46;98180.06;4986395;28;19962;-64
2023/07/14 06:28:55;;;;;;;;;;;;;;;19.63;49.69;98178.72;4982480;28;20294;-62
2023/07/14 06:31:45;;;;;;;;;;;;;;;19.58;50.03;98183.72;5005912;28;20009;-64
2023/07/14 06:34:33;;;;;;;;;;;;;;;19.71;49.56;98178.84;4977474;28;20284;-63
2023/07/14 06:37:22;;;;;;;;;;;;;;;19.86;49.37;98175.19;4984878;28;19941;-64
2023/07/14 06:40:10;;;;;;;;;;;;;;;19.90;49.44;98178.81;4985739;28;19930;-61
2023/07/14 06:43:00;;;;;;;;;;;;;;;20.09;49.54;98178.00;4987450;28;19933;-64
2023/07/14 06:45:49;;;;;;;;;;;;;;;20.07;48.95;98180.31;4986756;28;20436;-65
2023/07/14 06:48:38;;;;;;;;;;;;;;;19.95;49.13;98174.97;4990673;28;19925;-62
2023/07/14 06:51:27;;;;;;;;;;;;;;;20.01;49.35;98176.25;4988134;28;19930;-61
2023/07/14 06:54:15;;;;;;;;;;;;;;;20.13;49.98;98171.38;4988060;28;20387;-63
2023/07/14 06:57:04;;;;;;;;;;;;;;;20.16;48.75;98178.09;4990851;28;19930;-62
2023/07/14 06:59:52;;;;;;;;;;;;;;;20.28;49.00;98180.66;4984628;28;19937;-61
2023/07/14 07:02:41;;;;;;;;;;;;;;;20.29;48.29;98178.72;5013682;28;19933;-64
2023/07/14 07:05:30;;;;;;;;;;;;;;;20.40;47.94;98172.22;5011156;28;19968;-62
2023/07/14 07:08:19;;;;;;;;;;;;;;;20.55;47.64;98176.00;5005023;28;19929;-63
2023/07/14 07:11:09;;;;;;;;;;;;;;;20.62;47.85;98173.38;5007279;28;19951;-64
2023/07/14 07:13:58;;;;;;;;;;;;;;;20.76;47.25;98167.25;4999266;28;20442;-62
2023/07/14 07:16:46;;;;;;;;;;;;;;;20.88;47.59;98167.06;4986298;28;19929;-61
2023/07/14 07:19:36;;;;;;;;;;;;;;;20.82;46.95;98164.97;4993991;28;19929;-61
2023/07/14 07:22:26;;;;;;;;;;;;;;;20.97;47.51;98161.25;4992577;28;19925;-61
2023/07/14 07:25:16;;;;;;;;;;;;;;;21.01;45.96;98161.28;4995838;28;20393;-60
2023/07/14 07:28:06;;;;;;;;;;;;;;;21.08;46.19;98162.19;5009878;28;19937;-63
2023/07/14 07:30:54;;;;;;;;;;;;;;;21.14;46.41;98149.63;5003336;28;20016;-60
2023/07/14 07:33:42;;;;;;;;;;;;;;;21.23;46.43;98140.25;5009811;28;19925;-61
2023/07/14 07:36:31;;;;;;;;;;;;;;;21.33;44.99;98139.63;5006292;28;19925;-60
2023/07/14 07:39:21;;;;;;;;;;;;;;;21.41;45.03;98136.59;5005053;28;19933;-67
2023/07/14 07:42:09;;;;;;;;;;;;;;;21.53;45.01;98143.03;5006355;28;20310;-62
2023/07/14 07:44:58;;;;;;;;;;;;;;;21.60;43.75;98126.50;5009296;28;19926;-63
2023/07/14 07:47:46;;;;;;;;;;;;;;;21.75;44.27;98133.78;4998406;28;20700;-63
2023/07/14 07:50:34;;;;;;;;;;;;;;;21.89;44.33;98127.56;5008290;28;19987;-62
2023/07/14 07:53:22;;;;;;;;;;;;;;;22.05;44.84;98119.00;5014513;28;19925;-60
2023/07/14 07:56:12;;;;;;;;;;;;;;;22.23;43.43;98125.53;5007061;28;20295;-62
2023/07/14 07:59:02;;;;;;;;;;;;;;;22.26;41.94;98119.22;5006992;28;19960;-62
2023/07/14 08:01:51;;;;;;;;;;;;;;;22.15;41.64;98123.88;4998315;28;20386;-62
2023/07/14 08:04:39;;;;;;;;;;;;;;;22.23;41.16;98115.25;5007440;28;19925;-61
2023/07/14 08:07:27;;;;;;;;;;;;;;;22.35;41.14;98110.59;5001013;28;20047;-64
2023/07/14 08:10:15;;;;;;;;;;;;;;;22.42;41.01;98118.94;5009582;28;19929;-63
2023/07/14 08:13:05;;;;;;;;;;;;;;;22.39;40.22;98106.69;5008331;28;19934;-63
2023/07/14 08:15:54;;;;;;;;;;;;;;;22.51;39.48;98099.25;4997802;28;20147;-62
2023/07/14 08:18:45;;;;;;;;;;;;;;;22.56;39.86;98098.88;4997414;28;20039;-62
2023/07/14 08:21:35;;;;;;;;;;;;;;;22.56;40.05;98107.19;5006201;28;19932;-61
2023/07/14 08:24:24;;;;;;;;;;;;;;;22.58;38.31;98107.59;5002616;28;19930;-69
2023/07/14 08:27:12;;;;;;;;;;;;;;;22.48;39.66;98112.69;4992985;28;19926;-62
2023/07/14 08:30:01;;;;;;;;;;;;;;;22.51;39.25;98118.63;4995751;28;20345;-66
2023/07/14 08:32:50;;;;;;;;;;;;;;;22.57;38.84;98117.06;5006618;28;19925;-61
2023/07/14 08:35:39;;;;;;;;;;;;;;;22.61;38.74;98110.38;5007736;28;20012;-63
2023/07/14 08:38:27;;;;;;;;;;;;;;;22.75;39.01;98113.25;5013299;28;20314;-65
2023/07/14 08:41:17;;;;;;;;;;;;;;;22.86;39.31;98110.53;5004149;28;20024;-63
2023/07/14 08:44:19;;;;;;;;;;;;;;;22.86;36.91;98113.31;5001831;28;19925;-62
2023/07/14 08:47:10;;;;;;;;;;;;;;;22.96;37.27;98103.50;5000395;28;19930;-63
2023/07/14 08:49:59;;;;;;;;;;;;;;;22.91;37.85;98099.13;5005135;28;20563;-63
2023/07/14 08:52:48;;;;;;;;;;;;;;;22.93;37.91;98099.50;5007002;28;19941;-65
2023/07/14 08:55:38;;;;;;;;;;;;;;;22.96;37.50;98095.19;5004744;28;19948;-60
2023/07/14 08:58:26;;;;;;;;;;;;;;;22.98;37.11;98095.56;5007251;28;19932;-61
2023/07/14 09:01:27;;;;;;;;;;;;;;;23.16;36.76;98090.09;5005099;28;19987;-61
2023/07/14 09:04:18;;;;;;;;;;;;;;;23.19;37.91;98092.09;5006141;28;20444;-60
2023/07/14 09:07:08;;;;;;;;;;;;;;;23.20;35.87;98088.94;5002369;28;19932;-61
2023/07/14 09:09:57;;;;;;;;;;;;;;;23.26;37.23;98092.13;5003777;28;19925;-61
2023/07/14 09:12:49;;;;;;;;;;;;;;;23.34;37.32;98087.41;5004979;28;19992;-61
2023/07/14 09:15:37;;;;;;;;;;;;;;;23.43;37.30;98071.16;4983929;28;19926;-63
2023/07/14 09:18:32;;;;;;;;;;;;;;;23.41;35.38;98082.66;5003480;28;19963;-63
2023/07/14 09:21:24;;;;;;;;;;;;;;;23.52;36.67;98089.03;5005096;28;19925;-62
2023/07/14 09:24:16;;;;;;;;;;;;;;;23.63;36.59;98079.97;5000428;28;19944;-66
2023/07/14 09:27:05;;;;;;;;;;;;;;;23.68;35.25;98074.03;5002863;28;19944;-60
2023/07/14 09:29:53;;;;;;;;;;;;;;;23.65;33.84;98069.25;5004695;28;20011;-61
2023/07/14 09:32:42;;;;;;;;;;;;;;;23.66;35.19;98071.66;4985676;28;19938;-67
2023/07/14 09:35:31;;;;;;;;;;;;;;;23.57;33.92;98065.66;4988090;28;19941;-64
2023/07/14 09:38:22;;;;;;;;;;;;;;;23.64;33.99;98065.69;4977279;28;20048;-66
2023/07/14 09:41:16;;;;;;;;;;;;;;;23.76;34.63;98061.75;4982391;28;19925;-62
2023/07/14 09:44:05;;;;;;;;;;;;;;;23.81;35.62;98052.22;4983083;28;19937;-60
2023/07/14 09:46:53;;;;;;;;;;;;;;;23.77;33.78;98049.47;4995277;28;20015;-64
2023/07/14 09:49:43;;;;;;;;;;;;;;;23.79;33.43;98047.09;5002932;28;20026;-64
2023/07/14 09:52:31;;;;;;;;;;;;;;;23.67;33.68;98044.72;5012742;28;20107;-61
2023/07/14 09:55:21;;;;;;;;;;;;;;;23.73;34.70;98043.13;5003809;28;19933;-67
2023/07/14 09:58:12;;;;;;;;;;;;;;;23.86;34.40;98047.06;5011972;28;19925;-61
2023/07/14 10:01:04;;;;;;;;;;;;;;;23.95;34.34;98050.25;4984538;28;19980;-61
2023/07/14 10:03:54;;;;;;;;;;;;;;;23.97;33.86;98041.53;4984015;28;19933;-64
2023/07/14 10:06:47;;;;;;;;;;;;;;;23.96;33.73;98037.97;4986638;28;19929;-62
2023/07/14 10:09:36;;;;;;;;;;;;;;;24.08;34.07;98033.22;4985498;28;19933;-62
2023/07/14 10:12:26;;;;;;;;;;;;;;;24.12;35.71;98025.66;4977932;28;19926;-62
2023/07/14 10:15:25;;;;;;;;;;;;;;;24.14;34.73;98028.84;4980781;28;19930;-67
2023/07/14 10:18:15;;;;;;;;;;;;;;;24.21;34.14;98028.84;4979796;28;20307;-61
2023/07/14 10:21:06;;;;;;;;;;;;;;;24.26;33.56;98022.88;4986948;28;19929;-65
2023/07/14 10:23:58;;;;;;;;;;;;;;;24.36;32.97;98018.53;4978196;28;20284;-63
2023/07/14 10:26:50;;;;;;;;;;;;;;;24.31;34.32;98016.91;5006339;28;20053;-63
2023/07/14 10:29:48;;;;;;;;;;;;;;;24.38;34.07;98014.16;4986374;28;19932;-61
2023/07/14 10:32:37;;;;;;;;;;;;;;;24.44;34.14;98009.75;4989238;28;20076;-65
2023/07/14 10:35:26;;;;;;;;;;;;;;;24.43;34.44;98005.41;4982396;28;20169;-63
2023/07/14 10:38:16;;;;;;;;;;;;;;;24.43;33.18;97994.28;4986309;28;19933;-61
2023/07/14 10:41:05;;;;;;;;;;;;;;;24.43;32.76;97990.72;4976781;28;20295;-62
2023/07/14 10:43:54;;;;;;;;;;;;;;;24.43;32.66;97994.28;4981328;28;20314;-62
2023/07/14 10:46:45;;;;;;;;;;;;;;;24.43;32.36;97990.72;4975736;28;20394;-64
2023/07/14 10:49:35;;;;;;;;;;;;;;;24.49;32.79;97984.34;4986336;28;19933;-64
2023/07/14 10:52:25;;;;;;;;;;;;;;;24.55;33.15;97968.88;4983898;28;19930;-63
2023/07/14 10:55:16;;;;;;;;;;;;;;;24.66;33.44;97970.81;4991449;28;20020;-61
2023/07/14 10:58:05;;;;;;;;;;;;;;;24.77;34.14;97974.34;4985287;28;19993;-60
2023/07/14 11:00:55;;;;;;;;;;;;;;;24.86;32.71;97968.34;4976306;28;19933;-63
2023/07/14 11:03:46;;;;;;;;;;;;;;;24.70;32.50;97966.03;4985949;28;19926;-63
2023/07/14 11:06:36;;;;;;;;;;;;;;;24.64;34.94;97967.66;4984942;28;20383;-64
2023/07/14 11:09:24;;;;;;;;;;;;;;;24.68;35.18;97972.00;4989819;28;19969;-61
2023/07/14 11:12:14;;;;;;;;;;;;;;;24.74;34.68;97955.69;4976591;28;20006;-64
2023/07/14 11:15:05;;;;;;;;;;;;;;;24.80;33.24;97954.06;4984390;28;19930;-62
2023/07/14 11:17:55;;;;;;;;;;;;;;;24.78;33.54;97948.16;4979143;28;19933;-62
2023/07/14 11:20:48;;;;;;;;;;;;;;;24.76;32.80;97942.97;4986279;28;19926;-64
2023/07/14 11:23:37;;;;;;;;;;;;;;;24.80;31.25;97948.50;4985408;28;20371;-63
2023/07/14 11:26:30;;;;;;;;;;;;;;;24.80;33.23;97951.28;4984837;28;19941;-61
2023/07/14 11:29:19;;;;;;;;;;;;;;;24.81;33.35;97938.97;4975962;28;19930;-62
2023/07/14 11:32:09;;;;;;;;;;;;;;;24.85;34.33;97939.75;4980123;28;20329;-61
2023/07/14 11:35:00;;;;;;;;;;;;;;;24.91;33.63;97938.13;4984415;28;20552;-65
2023/07/14 11:37:53;;;;;;;;;;;;;;;24.94;31.19;97926.22;4989227;28;19929;-62
2023/07/14 11:40:42;;;;;;;;;;;;;;;24.89;33.22;97929.41;4984745;28;19950;-64
2023/07/14 11:43:30;;;;;;;;;;;;;;;24.90;33.32;97919.88;4977752;28;20005;-63
2023/07/14 11:46:19;;;;;;;;;;;;;;;24.92;32.60;97914.69;4996749;28;20002;-63
2023/07/14 11:49:08;;;;;;;;;;;;;;;24.92;33.32;97914.69;5015330;28;19983;-63
2023/07/14 11:51:57;;;;;;;;;;;;;;;24.95;34.13;97916.69;5009364;28;19925;-61
2023/07/14 11:54:55;;;;;;;;;;;;;;;24.95;35.57;97910.31;5005790;28;20016;-64
2023/07/14 11:57:47;;;;;;;;;;;;;;;24.93;33.13;97904.38;5008147;28;19925;-67
2023/07/14 12:00:36;;;;;;;;;;;;;;;24.98;33.36;97901.97;5000727;28;20032;-64
2023/07/14 12:03:25;;;;;;;;;;;;;;;24.95;34.47;97900.00;4976896;28;19937;-64
2023/07/14 12:06:43;;;;;;;;;;;;;;;24.97;34.91;97899.59;4986734;28;19926;-61
2023/07/14 12:09:33;;;;;;;;;;;;;;;25.06;32.69;97891.63;4988782;28;19941;-62
2023/07/14 12:12:23;;;;;;;;;;;;;;;25.14;32.86;97893.16;4987590;28;19953;-64
2023/07/14 12:15:29;;;;;;;;;;;;;;;25.12;34.78;97897.53;4984545;28;19952;-62
2023/07/14 12:18:18;;;;;;;;;;;;;;;25.12;35.42;97889.19;5004210;28;19925;-63
2023/07/14 12:21:29;;;;;;;;;;;;;;;25.25;31.90;97890.28;5007028;28;19944;-64
2023/07/14 12:24:19;;;;;;;;;;;;;;;25.20;34.12;97893.50;5003722;28;19929;-61
2023/07/14 12:27:17;;;;;;;;;;;;;;;25.24;32.82;97891.47;5003560;28;19929;-64
2023/07/14 12:30:11;;;;;;;;;;;;;;;25.25;33.11;97893.09;5000939;28;19925;-69
2023/07/14 12:33:01;;;;;;;;;;;;;;;25.29;31.44;97880.69;5004825;28;19936;-63
2023/07/14 12:35:51;;;;;;;;;;;;;;;25.33;33.08;97875.13;5003652;28;20334;-65
2023/07/14 12:38:43;;;;;;;;;;;;;;;25.38;31.23;97877.47;5004819;28;19944;-65
2023/07/14 12:41:34;;;;;;;;;;;;;;;25.36;33.29;97876.31;4999685;28;19960;-62
2023/07/14 12:44:24;;;;;;;;;;;;;;;25.46;33.52;97865.09;5004717;28;20353;-63
2023/07/14 12:47:15;;;;;;;;;;;;;;;25.53;33.65;97856.66;4999983;28;20016;-62
2023/07/14 12:50:05;;;;;;;;;;;;;;;25.51;34.80;97853.50;5016922;28;19925;-60
2023/07/14 12:52:54;;;;;;;;;;;;;;;25.72;31.91;97846.91;5001514;28;19937;-63
2023/07/14 12:55:44;;;;;;;;;;;;;;;25.56;34.91;97849.47;5002764;28;19929;-61
2023/07/14 12:58:32;;;;;;;;;;;;;;;25.63;32.61;97848.63;5000228;28;20248;-60
2023/07/14 13:01:20;;;;;;;;;;;;;;;25.69;30.74;97852.53;4992424;28;19956;-61
2023/07/14 13:04:10;;;;;;;;;;;;;;;25.70;31.75;97851.34;4993067;28;19937;-64
2023/07/14 13:07:02;;;;;;;;;;;;;;;25.64;33.04;97839.88;5000929;28;19929;-62
2023/07/14 13:09:58;;;;;;;;;;;;;;;25.67;30.99;97825.13;4997291;28;20353;-62
2023/07/14 13:12:47;;;;;;;;;;;;;;;25.57;34.32;97826.81;5002782;28;20351;-67
2023/07/14 13:15:35;;;;;;;;;;;;;;;25.49;34.21;97830.88;4983575;28;19940;-63
2023/07/14 13:18:25;;;;;;;;;;;;;;;25.69;32.57;97831.06;4980514;28;19930;-64
2023/07/14 13:21:30;;;;;;;;;;;;;;;25.76;32.60;97819.09;4968754;28;20000;-60
2023/07/14 13:24:19;;;;;;;;;;;;;;;25.90;32.56;97824.50;4970457;28;20295;-63
2023/07/14 13:27:09;;;;;;;;;;;;;;;25.90;32.40;97820.94;4980391;28;20403;-63
2023/07/14 13:30:00;;;;;;;;;;;;;;;25.96;32.26;97817.28;4971612;28;19937;-62
2023/07/14 13:32:49;;;;;;;;;;;;;;;25.80;33.09;97811.50;5002191;28;19991;-61
2023/07/14 13:35:38;;;;;;;;;;;;;;;25.91;31.92;97811.38;4996982;28;19930;-65
2023/07/14 13:38:28;;;;;;;;;;;;;;;25.94;30.62;97804.97;5005215;28;19932;-64
2023/07/14 13:41:17;;;;;;;;;;;;;;;25.78;33.22;97811.94;4999385;28;20309;-62
2023/07/14 13:44:24;;;;;;;;;;;;;;;25.96;31.42;97799.78;5009049;28;20625;-62
2023/07/14 13:47:15;;;;;;;;;;;;;;;25.89;33.08;97806.25;4995619;28;19925;-61
2023/07/14 13:50:06;;;;;;;;;;;;;;;25.87;33.02;97791.94;5013647;28;19951;-66
2023/07/14 13:52:56;;;;;;;;;;;;;;;25.86;32.93;97790.38;5004559;28;19940;-62
2023/07/14 13:55:47;;;;;;;;;;;;;;;25.91;31.15;97789.13;5014273;28;19930;-66
2023/07/14 13:58:35;;;;;;;;;;;;;;;25.89;31.81;97788.72;5011980;28;19936;-62
2023/07/14 14:01:24;;;;;;;;;;;;;;;25.93;32.52;97783.91;4997090;28;19930;-61
2023/07/14 14:04:13;;;;;;;;;;;;;;;25.89;31.39;97775.63;5004669;28;19925;-61
2023/07/14 14:07:01;;;;;;;;;;;;;;;25.86;32.13;97776.44;5003333;28;19932;-62
2023/07/14 14:09:50;;;;;;;;;;;;;;;25.92;31.83;97774.78;5004816;28;19941;-63
2023/07/14 14:12:39;;;;;;;;;;;;;;;25.92;32.50;97768.41;5007687;28;19925;-62
2023/07/14 14:15:28;;;;;;;;;;;;;;;25.98;32.75;97769.53;4987744;28;19937;-63
2023/07/14 14:18:18;;;;;;;;;;;;;;;26.02;32.24;97768.28;5015392;28;19934;-61
2023/07/14 14:21:08;;;;;;;;;;;;;;;26.00;32.37;97767.94;5000974;28;20738;-61
2023/07/14 14:23:57;;;;;;;;;;;;;;;25.94;32.36;97761.25;5006055;28;19936;-64
2023/07/14 14:26:45;;;;;;;;;;;;;;;25.85;33.56;97755.38;4999210;28;19933;-68
2023/07/14 14:29:35;;;;;;;;;;;;;;;25.87;34.13;97758.53;5015886;28;20551;-63
2023/07/14 14:32:23;;;;;;;;;;;;;;;26.10;32.05;97738.38;4999736;28;19936;-63
2023/07/14 14:35:17;;;;;;;;;;;;;;;26.15;31.50;97737.09;5007759;28;20205;-62
2023/07/14 14:38:10;;;;;;;;;;;;;;;26.03;32.68;97725.31;4999022;28;19932;-61
2023/07/14 14:41:06;;;;;;;;;;;;;;;26.15;31.48;97729.53;5000617;28;19940;-61
2023/07/14 14:43:54;;;;;;;;;;;;;;;26.10;32.22;97732.81;5000749;28;20465;-61
2023/07/14 14:46:45;;;;;;;;;;;;;;;26.18;31.81;97719.56;5000935;28;19925;-64